sensor_id;sensor_type;location;lat;lon;timestamp;P1;durP1;ratioP1;P2;durP2;ratioP2
1811;SDS011;904;47.814;11.134;2023-07-31T00:00:08;5.23;;;1.97;;
1811;SDS011;904;47.814;11.134;2023-07-31T00:02:36;3.90;;;2.90;;
1811;SDS011;904;47.814;11.134;2023-07-31T00:05:03;3.90;;;2.43;;
1811;SDS011;904;47.814;11.134;2023-07-31T00:07:31;5.73;;;2.73;;
1811;SDS011;904;47.814;11.134;2023-07-31T00:09:58;3.97;;;2.60;;
1811;SDS011;904;47.814;11.134;2023-07-31T00:12:25;5.63;;;2.37;;
1811;SDS011;904;47.814;11.134;2023-07-31T00:14:52;3.77;;;2.13;;
1811;SDS011;904;47.814;11.134;2023-07-31T00:17:21;3.30;;;1.93;;
1811;SDS011;904;47.814;11.134;2023-07-31T00:19:48;6.77;;;2.93;;
1811;SDS011;904;47.814;11.134;2023-07-31T00:22:15;3.93;;;2.63;;
1811;SDS011;904;47.814;11.134;2023-07-31T00:24:43;3.17;;;2.10;;
1811;SDS011;904;47.814;11.134;2023-07-31T00:27:11;3.90;;;2.57;;
1811;SDS011;904;47.814;11.134;2023-07-31T00:29:39;3.83;;;2.00;;
1811;SDS011;904;47.814;11.134;2023-07-31T00:32:06;6.63;;;2.87;;
1811;SDS011;904;47.814;11.134;2023-07-31T00:34:35;5.77;;;2.87;;
1811;SDS011;904;47.814;11.134;2023-07-31T00:37:02;3.37;;;2.40;;
1811;SDS011;904;47.814;11.134;2023-07-31T00:39:29;4.67;;;2.80;;
1811;SDS011;904;47.814;11.134;2023-07-31T00:41:56;3.20;;;2.10;;
1811;SDS011;904;47.814;11.134;2023-07-31T00:44:23;4.20;;;2.33;;
1811;SDS011;904;47.814;11.134;2023-07-31T00:46:50;3.40;;;1.97;;
1811;SDS011;904;47.814;11.134;2023-07-31T00:49:17;4.33;;;2.40;;
1811;SDS011;904;47.814;11.134;2023-07-31T00:51:46;10.70;;;2.90;;
1811;SDS011;904;47.814;11.134;2023-07-31T00:54:13;6.13;;;2.30;;
1811;SDS011;904;47.814;11.134;2023-07-31T00:56:40;4.00;;;2.17;;
1811;SDS011;904;47.814;11.134;2023-07-31T00:59:08;3.00;;;1.90;;
1811;SDS011;904;47.814;11.134;2023-07-31T01:01:35;3.40;;;2.03;;
1811;SDS011;904;47.814;11.134;2023-07-31T01:04:02;3.37;;;1.70;;
1811;SDS011;904;47.814;11.134;2023-07-31T01:06:31;4.37;;;2.20;;
1811;SDS011;904;47.814;11.134;2023-07-31T01:09:06;5.50;;;2.60;;
1811;SDS011;904;47.814;11.134;2023-07-31T01:11:42;5.67;;;2.17;;
1811;SDS011;904;47.814;11.134;2023-07-31T01:14:14;3.40;;;2.07;;
1811;SDS011;904;47.814;11.134;2023-07-31T01:16:40;5.40;;;2.23;;
1811;SDS011;904;47.814;11.134;2023-07-31T01:19:07;3.10;;;1.73;;
1811;SDS011;904;47.814;11.134;2023-07-31T01:21:43;4.30;;;2.10;;
1811;SDS011;904;47.814;11.134;2023-07-31T01:24:38;5.73;;;3.00;;
1811;SDS011;904;47.814;11.134;2023-07-31T01:27:17;3.50;;;2.23;;
1811;SDS011;904;47.814;11.134;2023-07-31T01:29:52;6.70;;;2.37;;
1811;SDS011;904;47.814;11.134;2023-07-31T01:32:22;4.60;;;1.57;;
1811;SDS011;904;47.814;11.134;2023-07-31T01:34:51;4.30;;;2.10;;
1811;SDS011;904;47.814;11.134;2023-07-31T01:37:19;3.23;;;2.43;;
1811;SDS011;904;47.814;11.134;2023-07-31T01:39:46;7.53;;;3.70;;
1811;SDS011;904;47.814;11.134;2023-07-31T01:42:14;3.60;;;2.40;;
1811;SDS011;904;47.814;11.134;2023-07-31T01:44:42;3.53;;;2.20;;
1811;SDS011;904;47.814;11.134;2023-07-31T01:47:09;3.90;;;2.33;;
1811;SDS011;904;47.814;11.134;2023-07-31T01:49:36;4.33;;;2.73;;
1811;SDS011;904;47.814;11.134;2023-07-31T01:52:04;5.70;;;2.70;;
1811;SDS011;904;47.814;11.134;2023-07-31T01:54:31;4.23;;;2.07;;
1811;SDS011;904;47.814;11.134;2023-07-31T01:56:59;3.97;;;2.47;;
1811;SDS011;904;47.814;11.134;2023-07-31T01:59:26;8.53;;;2.93;;
1811;SDS011;904;47.814;11.134;2023-07-31T02:01:55;5.43;;;2.50;;
1811;SDS011;904;47.814;11.134;2023-07-31T02:04:22;5.07;;;2.70;;
1811;SDS011;904;47.814;11.134;2023-07-31T02:06:49;3.40;;;2.20;;
1811;SDS011;904;47.814;11.134;2023-07-31T02:09:16;6.33;;;3.00;;
1811;SDS011;904;47.814;11.134;2023-07-31T02:11:43;6.33;;;2.53;;
1811;SDS011;904;47.814;11.134;2023-07-31T02:14:10;5.57;;;2.30;;
1811;SDS011;904;47.814;11.134;2023-07-31T02:16:37;5.33;;;1.93;;
1811;SDS011;904;47.814;11.134;2023-07-31T02:19:05;3.27;;;2.10;;
1811;SDS011;904;47.814;11.134;2023-07-31T02:21:32;5.20;;;2.93;;
1811;SDS011;904;47.814;11.134;2023-07-31T02:23:59;4.40;;;2.20;;
1811;SDS011;904;47.814;11.134;2023-07-31T02:26:29;4.47;;;2.50;;
1811;SDS011;904;47.814;11.134;2023-07-31T02:28:56;5.50;;;2.20;;
1811;SDS011;904;47.814;11.134;2023-07-31T02:31:23;5.10;;;3.07;;
1811;SDS011;904;47.814;11.134;2023-07-31T02:33:52;6.07;;;3.73;;
1811;SDS011;904;47.814;11.134;2023-07-31T02:36:20;7.33;;;3.80;;
1811;SDS011;904;47.814;11.134;2023-07-31T02:38:47;8.20;;;4.27;;
1811;SDS011;904;47.814;11.134;2023-07-31T02:41:14;4.97;;;3.10;;
1811;SDS011;904;47.814;11.134;2023-07-31T02:43:41;5.63;;;3.30;;
1811;SDS011;904;47.814;11.134;2023-07-31T02:46:09;6.53;;;4.33;;
1811;SDS011;904;47.814;11.134;2023-07-31T02:48:36;7.07;;;3.97;;
1811;SDS011;904;47.814;11.134;2023-07-31T02:51:03;6.97;;;3.27;;
1811;SDS011;904;47.814;11.134;2023-07-31T02:53:31;5.13;;;3.43;;
1811;SDS011;904;47.814;11.134;2023-07-31T02:55:58;9.30;;;3.27;;
1811;SDS011;904;47.814;11.134;2023-07-31T02:58:25;5.00;;;3.17;;
1811;SDS011;904;47.814;11.134;2023-07-31T03:00:52;5.80;;;2.73;;
1811;SDS011;904;47.814;11.134;2023-07-31T03:03:19;3.60;;;2.17;;
1811;SDS011;904;47.814;11.134;2023-07-31T03:05:46;5.33;;;3.33;;
1811;SDS011;904;47.814;11.134;2023-07-31T03:08:13;7.10;;;3.93;;
1811;SDS011;904;47.814;11.134;2023-07-31T03:10:41;6.80;;;3.40;;
1811;SDS011;904;47.814;11.134;2023-07-31T03:13:08;5.50;;;2.90;;
1811;SDS011;904;47.814;11.134;2023-07-31T03:15:35;5.23;;;3.27;;
1811;SDS011;904;47.814;11.134;2023-07-31T03:18:02;4.43;;;3.17;;
1811;SDS011;904;47.814;11.134;2023-07-31T03:20:29;4.93;;;3.63;;
1811;SDS011;904;47.814;11.134;2023-07-31T03:22:56;3.77;;;3.30;;
1811;SDS011;904;47.814;11.134;2023-07-31T03:25:23;4.97;;;2.53;;
1811;SDS011;904;47.814;11.134;2023-07-31T03:27:51;7.10;;;2.53;;
1811;SDS011;904;47.814;11.134;2023-07-31T03:30:20;3.00;;;2.30;;
1811;SDS011;904;47.814;11.134;2023-07-31T03:32:47;5.10;;;2.87;;
1811;SDS011;904;47.814;11.134;2023-07-31T03:35:14;3.63;;;2.77;;
1811;SDS011;904;47.814;11.134;2023-07-31T03:37:44;5.70;;;3.23;;
1811;SDS011;904;47.814;11.134;2023-07-31T03:40:11;6.73;;;2.97;;
1811;SDS011;904;47.814;11.134;2023-07-31T03:42:38;6.40;;;4.00;;
1811;SDS011;904;47.814;11.134;2023-07-31T03:45:07;5.53;;;4.67;;
1811;SDS011;904;47.814;11.134;2023-07-31T03:47:38;4.63;;;2.70;;
1811;SDS011;904;47.814;11.134;2023-07-31T03:50:10;5.63;;;3.57;;
1811;SDS011;904;47.814;11.134;2023-07-31T03:52:37;5.40;;;3.30;;
1811;SDS011;904;47.814;11.134;2023-07-31T03:55:04;4.60;;;2.90;;
1811;SDS011;904;47.814;11.134;2023-07-31T03:57:32;6.53;;;3.60;;
1811;SDS011;904;47.814;11.134;2023-07-31T03:59:59;5.37;;;3.50;;
1811;SDS011;904;47.814;11.134;2023-07-31T04:02:27;10.63;;;3.40;;
1811;SDS011;904;47.814;11.134;2023-07-31T04:04:54;5.50;;;3.40;;
1811;SDS011;904;47.814;11.134;2023-07-31T04:07:23;6.80;;;3.03;;
1811;SDS011;904;47.814;11.134;2023-07-31T04:09:49;8.27;;;3.60;;
1811;SDS011;904;47.814;11.134;2023-07-31T04:12:17;4.00;;;2.73;;
1811;SDS011;904;47.814;11.134;2023-07-31T04:14:44;3.67;;;2.43;;
1811;SDS011;904;47.814;11.134;2023-07-31T04:17:11;4.90;;;3.50;;
1811;SDS011;904;47.814;11.134;2023-07-31T04:19:39;4.80;;;2.30;;
1811;SDS011;904;47.814;11.134;2023-07-31T04:22:06;4.00;;;2.87;;
1811;SDS011;904;47.814;11.134;2023-07-31T04:24:33;5.70;;;3.00;;
1811;SDS011;904;47.814;11.134;2023-07-31T04:27:00;3.83;;;2.23;;
1811;SDS011;904;47.814;11.134;2023-07-31T04:29:28;5.63;;;3.20;;
1811;SDS011;904;47.814;11.134;2023-07-31T04:31:55;4.90;;;2.53;;
1811;SDS011;904;47.814;11.134;2023-07-31T04:34:22;4.50;;;2.67;;
1811;SDS011;904;47.814;11.134;2023-07-31T04:36:54;5.10;;;3.37;;
1811;SDS011;904;47.814;11.134;2023-07-31T04:39:21;5.83;;;3.17;;
1811;SDS011;904;47.814;11.134;2023-07-31T04:41:48;5.80;;;4.00;;
1811;SDS011;904;47.814;11.134;2023-07-31T04:44:17;5.97;;;2.70;;
1811;SDS011;904;47.814;11.134;2023-07-31T04:46:44;4.00;;;2.80;;
1811;SDS011;904;47.814;11.134;2023-07-31T04:49:16;8.50;;;3.33;;
1811;SDS011;904;47.814;11.134;2023-07-31T04:51:43;5.17;;;2.80;;
1811;SDS011;904;47.814;11.134;2023-07-31T04:54:12;3.50;;;2.43;;
1811;SDS011;904;47.814;11.134;2023-07-31T04:56:40;9.60;;;2.93;;
1811;SDS011;904;47.814;11.134;2023-07-31T04:59:07;5.10;;;3.13;;
1811;SDS011;904;47.814;11.134;2023-07-31T05:01:34;8.23;;;3.57;;
1811;SDS011;904;47.814;11.134;2023-07-31T05:04:01;4.10;;;2.27;;
1811;SDS011;904;47.814;11.134;2023-07-31T05:06:28;4.67;;;2.90;;
1811;SDS011;904;47.814;11.134;2023-07-31T05:08:55;4.73;;;3.20;;
1811;SDS011;904;47.814;11.134;2023-07-31T05:11:24;4.70;;;2.90;;
1811;SDS011;904;47.814;11.134;2023-07-31T05:13:51;5.47;;;3.00;;
1811;SDS011;904;47.814;11.134;2023-07-31T05:16:18;5.93;;;3.23;;
1811;SDS011;904;47.814;11.134;2023-07-31T05:18:45;5.63;;;3.17;;
1811;SDS011;904;47.814;11.134;2023-07-31T05:21:12;5.50;;;3.27;;
1811;SDS011;904;47.814;11.134;2023-07-31T05:23:44;7.33;;;2.70;;
1811;SDS011;904;47.814;11.134;2023-07-31T05:26:12;4.97;;;2.87;;
1811;SDS011;904;47.814;11.134;2023-07-31T05:28:41;7.27;;;3.63;;
1811;SDS011;904;47.814;11.134;2023-07-31T05:31:08;3.37;;;2.40;;
1811;SDS011;904;47.814;11.134;2023-07-31T05:33:34;4.07;;;2.50;;
1811;SDS011;904;47.814;11.134;2023-07-31T05:36:01;4.23;;;2.90;;
1811;SDS011;904;47.814;11.134;2023-07-31T05:38:34;7.23;;;3.10;;
1811;SDS011;904;47.814;11.134;2023-07-31T05:41:01;3.80;;;2.80;;
1811;SDS011;904;47.814;11.134;2023-07-31T05:43:28;8.10;;;2.57;;
1811;SDS011;904;47.814;11.134;2023-07-31T05:45:56;5.47;;;2.70;;
1811;SDS011;904;47.814;11.134;2023-07-31T05:48:23;4.07;;;2.80;;
1811;SDS011;904;47.814;11.134;2023-07-31T05:50:50;3.73;;;2.87;;
1811;SDS011;904;47.814;11.134;2023-07-31T05:53:17;4.90;;;2.80;;
1811;SDS011;904;47.814;11.134;2023-07-31T05:55:44;4.97;;;2.83;;
1811;SDS011;904;47.814;11.134;2023-07-31T05:58:11;5.33;;;3.00;;
1811;SDS011;904;47.814;11.134;2023-07-31T06:00:38;8.23;;;2.67;;
1811;SDS011;904;47.814;11.134;2023-07-31T06:03:07;4.60;;;3.00;;
1811;SDS011;904;47.814;11.134;2023-07-31T06:05:34;5.47;;;3.30;;
1811;SDS011;904;47.814;11.134;2023-07-31T06:08:01;4.07;;;2.50;;
1811;SDS011;904;47.814;11.134;2023-07-31T06:10:28;3.47;;;2.30;;
1811;SDS011;904;47.814;11.134;2023-07-31T06:12:55;5.80;;;2.63;;
1811;SDS011;904;47.814;11.134;2023-07-31T06:15:22;5.20;;;2.60;;
1811;SDS011;904;47.814;11.134;2023-07-31T06:17:49;7.23;;;2.80;;
1811;SDS011;904;47.814;11.134;2023-07-31T06:20:18;7.37;;;2.83;;
1811;SDS011;904;47.814;11.134;2023-07-31T06:22:45;4.70;;;2.90;;
1811;SDS011;904;47.814;11.134;2023-07-31T06:25:12;4.97;;;2.40;;
1811;SDS011;904;47.814;11.134;2023-07-31T06:27:39;4.23;;;1.50;;
1811;SDS011;904;47.814;11.134;2023-07-31T06:30:06;4.60;;;2.20;;
1811;SDS011;904;47.814;11.134;2023-07-31T06:32:34;3.87;;;2.50;;
1811;SDS011;904;47.814;11.134;2023-07-31T06:35:01;3.20;;;2.10;;
1811;SDS011;904;47.814;11.134;2023-07-31T06:37:29;4.70;;;2.30;;
1811;SDS011;904;47.814;11.134;2023-07-31T06:39:56;8.20;;;2.70;;
1811;SDS011;904;47.814;11.134;2023-07-31T06:42:23;3.83;;;2.20;;
1811;SDS011;904;47.814;11.134;2023-07-31T06:44:50;5.60;;;1.90;;
1811;SDS011;904;47.814;11.134;2023-07-31T06:47:17;4.70;;;2.37;;
1811;SDS011;904;47.814;11.134;2023-07-31T06:49:44;3.70;;;2.00;;
1811;SDS011;904;47.814;11.134;2023-07-31T06:52:11;5.83;;;2.17;;
1811;SDS011;904;47.814;11.134;2023-07-31T06:54:39;5.93;;;2.27;;
1811;SDS011;904;47.814;11.134;2023-07-31T06:57:06;4.00;;;1.93;;
1811;SDS011;904;47.814;11.134;2023-07-31T06:59:33;5.13;;;2.10;;
1811;SDS011;904;47.814;11.134;2023-07-31T07:02:00;3.57;;;1.80;;
1811;SDS011;904;47.814;11.134;2023-07-31T07:04:27;6.23;;;2.17;;
1811;SDS011;904;47.814;11.134;2023-07-31T07:06:54;4.13;;;2.70;;
1811;SDS011;904;47.814;11.134;2023-07-31T07:09:21;6.10;;;1.80;;
1811;SDS011;904;47.814;11.134;2023-07-31T07:11:49;5.97;;;2.10;;
1811;SDS011;904;47.814;11.134;2023-07-31T07:14:16;4.57;;;2.10;;
1811;SDS011;904;47.814;11.134;2023-07-31T07:16:43;3.33;;;2.40;;
1811;SDS011;904;47.814;11.134;2023-07-31T07:19:10;2.57;;;1.53;;
1811;SDS011;904;47.814;11.134;2023-07-31T07:21:37;5.77;;;2.60;;
1811;SDS011;904;47.814;11.134;2023-07-31T07:24:04;6.40;;;2.47;;
1811;SDS011;904;47.814;11.134;2023-07-31T07:26:31;4.73;;;2.47;;
1811;SDS011;904;47.814;11.134;2023-07-31T07:28:59;3.60;;;1.83;;
1811;SDS011;904;47.814;11.134;2023-07-31T07:31:27;3.90;;;1.90;;
1811;SDS011;904;47.814;11.134;2023-07-31T07:33:54;5.00;;;2.53;;
1811;SDS011;904;47.814;11.134;2023-07-31T07:36:22;5.33;;;3.33;;
1811;SDS011;904;47.814;11.134;2023-07-31T07:38:49;5.63;;;2.03;;
1811;SDS011;904;47.814;11.134;2023-07-31T07:41:16;4.87;;;2.10;;
1811;SDS011;904;47.814;11.134;2023-07-31T07:43:43;8.43;;;2.10;;
1811;SDS011;904;47.814;11.134;2023-07-31T07:46:11;6.83;;;2.47;;
1811;SDS011;904;47.814;11.134;2023-07-31T07:48:38;3.50;;;1.50;;
1811;SDS011;904;47.814;11.134;2023-07-31T07:51:05;3.90;;;1.43;;
1811;SDS011;904;47.814;11.134;2023-07-31T07:53:32;9.73;;;2.20;;
1811;SDS011;904;47.814;11.134;2023-07-31T07:55:58;5.43;;;2.00;;
1811;SDS011;904;47.814;11.134;2023-07-31T07:58:25;5.23;;;1.80;;
1811;SDS011;904;47.814;11.134;2023-07-31T08:00:52;7.60;;;2.10;;
1811;SDS011;904;47.814;11.134;2023-07-31T08:03:20;4.67;;;1.90;;
1811;SDS011;904;47.814;11.134;2023-07-31T08:05:47;5.67;;;1.80;;
1811;SDS011;904;47.814;11.134;2023-07-31T08:08:14;4.07;;;1.83;;
1811;SDS011;904;47.814;11.134;2023-07-31T08:10:42;5.50;;;2.00;;
1811;SDS011;904;47.814;11.134;2023-07-31T08:13:09;4.20;;;1.63;;
1811;SDS011;904;47.814;11.134;2023-07-31T08:15:40;5.23;;;2.43;;
1811;SDS011;904;47.814;11.134;2023-07-31T08:18:08;4.10;;;1.90;;
1811;SDS011;904;47.814;11.134;2023-07-31T08:20:36;4.80;;;1.87;;
1811;SDS011;904;47.814;11.134;2023-07-31T08:23:03;3.40;;;1.40;;
1811;SDS011;904;47.814;11.134;2023-07-31T08:25:30;6.53;;;1.60;;
1811;SDS011;904;47.814;11.134;2023-07-31T08:28:00;2.90;;;1.43;;
1811;SDS011;904;47.814;11.134;2023-07-31T08:30:27;4.87;;;1.90;;
1811;SDS011;904;47.814;11.134;2023-07-31T08:32:54;4.47;;;1.90;;
1811;SDS011;904;47.814;11.134;2023-07-31T08:35:21;4.40;;;2.27;;
1811;SDS011;904;47.814;11.134;2023-07-31T08:37:50;4.93;;;2.10;;
1811;SDS011;904;47.814;11.134;2023-07-31T08:40:17;4.33;;;1.97;;
1811;SDS011;904;47.814;11.134;2023-07-31T08:42:44;7.50;;;1.90;;
1811;SDS011;904;47.814;11.134;2023-07-31T08:45:13;3.93;;;2.47;;
1811;SDS011;904;47.814;11.134;2023-07-31T08:47:42;5.40;;;2.10;;
1811;SDS011;904;47.814;11.134;2023-07-31T08:50:12;4.57;;;1.93;;
1811;SDS011;904;47.814;11.134;2023-07-31T08:52:39;3.50;;;1.73;;
1811;SDS011;904;47.814;11.134;2023-07-31T08:55:08;7.33;;;1.70;;
1811;SDS011;904;47.814;11.134;2023-07-31T08:57:36;5.50;;;1.90;;
1811;SDS011;904;47.814;11.134;2023-07-31T09:00:04;3.30;;;2.00;;
1811;SDS011;904;47.814;11.134;2023-07-31T09:02:34;3.70;;;1.50;;
1811;SDS011;904;47.814;11.134;2023-07-31T09:05:07;4.93;;;2.27;;
1811;SDS011;904;47.814;11.134;2023-07-31T09:07:35;3.60;;;1.73;;
1811;SDS011;904;47.814;11.134;2023-07-31T09:10:02;2.87;;;1.30;;
1811;SDS011;904;47.814;11.134;2023-07-31T09:12:32;3.20;;;1.70;;
1811;SDS011;904;47.814;11.134;2023-07-31T09:14:59;3.87;;;1.60;;
1811;SDS011;904;47.814;11.134;2023-07-31T09:17:30;3.80;;;2.10;;
1811;SDS011;904;47.814;11.134;2023-07-31T09:19:57;4.23;;;1.90;;
1811;SDS011;904;47.814;11.134;2023-07-31T09:22:33;4.10;;;1.70;;
1811;SDS011;904;47.814;11.134;2023-07-31T09:25:13;4.33;;;1.67;;
1811;SDS011;904;47.814;11.134;2023-07-31T09:27:52;5.43;;;2.00;;
1811;SDS011;904;47.814;11.134;2023-07-31T09:30:20;7.73;;;2.53;;
1811;SDS011;904;47.814;11.134;2023-07-31T09:32:48;4.30;;;1.73;;
1811;SDS011;904;47.814;11.134;2023-07-31T09:35:19;4.13;;;1.70;;
1811;SDS011;904;47.814;11.134;2023-07-31T09:37:48;3.40;;;1.50;;
1811;SDS011;904;47.814;11.134;2023-07-31T09:40:25;3.60;;;1.97;;
1811;SDS011;904;47.814;11.134;2023-07-31T09:42:57;10.70;;;2.70;;
1811;SDS011;904;47.814;11.134;2023-07-31T09:45:24;4.90;;;2.10;;
1811;SDS011;904;47.814;11.134;2023-07-31T09:47:52;4.00;;;1.93;;
1811;SDS011;904;47.814;11.134;2023-07-31T09:50:19;4.73;;;2.20;;
1811;SDS011;904;47.814;11.134;2023-07-31T09:52:47;2.90;;;1.67;;
1811;SDS011;904;47.814;11.134;2023-07-31T09:55:14;3.27;;;2.10;;
1811;SDS011;904;47.814;11.134;2023-07-31T09:57:42;4.03;;;2.07;;
1811;SDS011;904;47.814;11.134;2023-07-31T10:00:13;3.27;;;1.43;;
1811;SDS011;904;47.814;11.134;2023-07-31T10:02:41;4.63;;;2.07;;
1811;SDS011;904;47.814;11.134;2023-07-31T10:05:12;3.30;;;1.40;;
1811;SDS011;904;47.814;11.134;2023-07-31T10:07:41;4.33;;;1.90;;
1811;SDS011;904;47.814;11.134;2023-07-31T10:10:11;4.90;;;1.70;;
1811;SDS011;904;47.814;11.134;2023-07-31T10:12:39;5.73;;;2.00;;
1811;SDS011;904;47.814;11.134;2023-07-31T10:15:08;6.10;;;2.30;;
1811;SDS011;904;47.814;11.134;2023-07-31T10:17:36;4.93;;;1.70;;
1811;SDS011;904;47.814;11.134;2023-07-31T10:20:04;6.37;;;2.30;;
1811;SDS011;904;47.814;11.134;2023-07-31T10:22:33;3.63;;;1.80;;
1811;SDS011;904;47.814;11.134;2023-07-31T10:25:01;2.87;;;1.70;;
1811;SDS011;904;47.814;11.134;2023-07-31T10:27:28;4.73;;;1.60;;
1811;SDS011;904;47.814;11.134;2023-07-31T10:29:56;5.40;;;2.27;;
1811;SDS011;904;47.814;11.134;2023-07-31T10:32:24;5.70;;;2.00;;
1811;SDS011;904;47.814;11.134;2023-07-31T10:34:54;5.83;;;2.00;;
1811;SDS011;904;47.814;11.134;2023-07-31T10:37:25;4.00;;;1.77;;
1811;SDS011;904;47.814;11.134;2023-07-31T10:39:57;4.47;;;2.20;;
1811;SDS011;904;47.814;11.134;2023-07-31T10:42:29;4.50;;;1.97;;
1811;SDS011;904;47.814;11.134;2023-07-31T10:44:57;6.70;;;2.20;;
1811;SDS011;904;47.814;11.134;2023-07-31T10:47:25;4.00;;;2.27;;
1811;SDS011;904;47.814;11.134;2023-07-31T10:49:54;4.13;;;1.90;;
1811;SDS011;904;47.814;11.134;2023-07-31T10:52:38;3.00;;;1.77;;
1811;SDS011;904;47.814;11.134;2023-07-31T10:55:14;2.80;;;1.67;;
1811;SDS011;904;47.814;11.134;2023-07-31T10:57:44;3.47;;;1.60;;
1811;SDS011;904;47.814;11.134;2023-07-31T11:00:18;3.63;;;1.80;;
1811;SDS011;904;47.814;11.134;2023-07-31T11:05:51;3.00;;;1.60;;
1811;SDS011;904;47.814;11.134;2023-07-31T11:08:20;3.00;;;1.60;;
1811;SDS011;904;47.814;11.134;2023-07-31T11:10:49;4.50;;;1.97;;
1811;SDS011;904;47.814;11.134;2023-07-31T11:13:17;4.30;;;2.00;;
1811;SDS011;904;47.814;11.134;2023-07-31T11:15:44;4.90;;;2.27;;
1811;SDS011;904;47.814;11.134;2023-07-31T11:18:12;3.17;;;1.73;;
1811;SDS011;904;47.814;11.134;2023-07-31T11:20:39;4.00;;;2.03;;
1811;SDS011;904;47.814;11.134;2023-07-31T11:23:08;2.83;;;1.40;;
1811;SDS011;904;47.814;11.134;2023-07-31T11:25:36;2.40;;;1.30;;
1811;SDS011;904;47.814;11.134;2023-07-31T11:28:05;5.87;;;2.13;;
1811;SDS011;904;47.814;11.134;2023-07-31T11:30:33;3.80;;;1.70;;
1811;SDS011;904;47.814;11.134;2023-07-31T11:33:02;4.23;;;2.07;;
1811;SDS011;904;47.814;11.134;2023-07-31T11:35:30;5.77;;;2.17;;
1811;SDS011;904;47.814;11.134;2023-07-31T11:37:58;6.77;;;1.67;;
1811;SDS011;904;47.814;11.134;2023-07-31T11:40:27;4.53;;;1.60;;
1811;SDS011;904;47.814;11.134;2023-07-31T11:42:55;5.43;;;2.10;;
1811;SDS011;904;47.814;11.134;2023-07-31T11:45:26;3.50;;;1.90;;
1811;SDS011;904;47.814;11.134;2023-07-31T11:47:54;4.03;;;1.53;;
1811;SDS011;904;47.814;11.134;2023-07-31T11:50:22;6.10;;;2.30;;
1811;SDS011;904;47.814;11.134;2023-07-31T11:52:51;3.60;;;1.70;;
1811;SDS011;904;47.814;11.134;2023-07-31T11:55:23;7.60;;;2.00;;
1811;SDS011;904;47.814;11.134;2023-07-31T11:57:55;5.33;;;2.00;;
1811;SDS011;904;47.814;11.134;2023-07-31T12:00:23;2.70;;;1.70;;
1811;SDS011;904;47.814;11.134;2023-07-31T12:02:51;3.90;;;2.40;;
1811;SDS011;904;47.814;11.134;2023-07-31T12:05:18;4.23;;;1.70;;
1811;SDS011;904;47.814;11.134;2023-07-31T12:07:46;3.43;;;1.90;;
1811;SDS011;904;47.814;11.134;2023-07-31T12:10:23;4.20;;;2.40;;
1811;SDS011;904;47.814;11.134;2023-07-31T12:13:02;3.90;;;2.10;;
1811;SDS011;904;47.814;11.134;2023-07-31T12:15:32;5.03;;;1.80;;
1811;SDS011;904;47.814;11.134;2023-07-31T12:18:00;2.90;;;1.57;;
1811;SDS011;904;47.814;11.134;2023-07-31T12:20:29;5.47;;;1.97;;
1811;SDS011;904;47.814;11.134;2023-07-31T12:22:57;4.33;;;2.00;;
1811;SDS011;904;47.814;11.134;2023-07-31T12:25:28;5.17;;;1.87;;
1811;SDS011;904;47.814;11.134;2023-07-31T12:28:04;4.13;;;1.90;;
1811;SDS011;904;47.814;11.134;2023-07-31T12:30:36;6.50;;;2.40;;
1811;SDS011;904;47.814;11.134;2023-07-31T12:33:04;5.77;;;2.27;;
1811;SDS011;904;47.814;11.134;2023-07-31T12:35:40;3.87;;;2.00;;
1811;SDS011;904;47.814;11.134;2023-07-31T12:38:10;4.00;;;1.90;;
1811;SDS011;904;47.814;11.134;2023-07-31T12:40:40;5.67;;;1.87;;
1811;SDS011;904;47.814;11.134;2023-07-31T12:43:09;4.27;;;1.70;;
1811;SDS011;904;47.814;11.134;2023-07-31T12:45:36;3.50;;;1.90;;
1811;SDS011;904;47.814;11.134;2023-07-31T12:48:03;2.83;;;1.60;;
1811;SDS011;904;47.814;11.134;2023-07-31T12:50:31;3.30;;;2.00;;
1811;SDS011;904;47.814;11.134;2023-07-31T12:52:58;3.60;;;1.90;;
1811;SDS011;904;47.814;11.134;2023-07-31T12:55:25;8.30;;;2.43;;
1811;SDS011;904;47.814;11.134;2023-07-31T12:57:55;3.37;;;1.97;;
1811;SDS011;904;47.814;11.134;2023-07-31T13:00:24;3.83;;;1.80;;
1811;SDS011;904;47.814;11.134;2023-07-31T13:02:51;7.07;;;2.30;;
1811;SDS011;904;47.814;11.134;2023-07-31T13:05:18;2.93;;;1.90;;
1811;SDS011;904;47.814;11.134;2023-07-31T13:07:46;3.30;;;1.83;;
1811;SDS011;904;47.814;11.134;2023-07-31T13:10:13;3.87;;;2.07;;
1811;SDS011;904;47.814;11.134;2023-07-31T13:12:42;4.97;;;1.63;;
1811;SDS011;904;47.814;11.134;2023-07-31T13:15:09;4.50;;;1.97;;
1811;SDS011;904;47.814;11.134;2023-07-31T13:17:38;5.50;;;2.97;;
1811;SDS011;904;47.814;11.134;2023-07-31T13:20:05;4.97;;;2.03;;
1811;SDS011;904;47.814;11.134;2023-07-31T13:22:33;10.97;;;2.60;;
1811;SDS011;904;47.814;11.134;2023-07-31T13:25:01;4.37;;;2.07;;
1811;SDS011;904;47.814;11.134;2023-07-31T13:27:28;4.47;;;2.00;;
1811;SDS011;904;47.814;11.134;2023-07-31T13:29:55;3.90;;;1.70;;
1811;SDS011;904;47.814;11.134;2023-07-31T13:32:23;3.90;;;1.83;;
1811;SDS011;904;47.814;11.134;2023-07-31T13:34:51;3.87;;;2.10;;
1811;SDS011;904;47.814;11.134;2023-07-31T13:37:18;4.60;;;1.80;;
1811;SDS011;904;47.814;11.134;2023-07-31T13:39:45;3.23;;;1.80;;
1811;SDS011;904;47.814;11.134;2023-07-31T13:42:12;3.73;;;2.10;;
1811;SDS011;904;47.814;11.134;2023-07-31T13:44:41;2.67;;;1.37;;
1811;SDS011;904;47.814;11.134;2023-07-31T13:47:08;2.80;;;1.40;;
1811;SDS011;904;47.814;11.134;2023-07-31T13:49:35;3.73;;;2.20;;
1811;SDS011;904;47.814;11.134;2023-07-31T13:52:05;3.10;;;1.83;;
1811;SDS011;904;47.814;11.134;2023-07-31T13:54:33;3.07;;;1.37;;
1811;SDS011;904;47.814;11.134;2023-07-31T13:57:00;3.20;;;1.63;;
1811;SDS011;904;47.814;11.134;2023-07-31T13:59:27;3.97;;;1.50;;
1811;SDS011;904;47.814;11.134;2023-07-31T14:01:54;4.77;;;1.67;;
1811;SDS011;904;47.814;11.134;2023-07-31T14:04:21;3.33;;;1.50;;
1811;SDS011;904;47.814;11.134;2023-07-31T14:06:48;3.90;;;1.77;;
1811;SDS011;904;47.814;11.134;2023-07-31T14:09:17;3.33;;;1.37;;
1811;SDS011;904;47.814;11.134;2023-07-31T14:11:44;3.60;;;1.37;;
1811;SDS011;904;47.814;11.134;2023-07-31T14:14:11;3.17;;;1.30;;
1811;SDS011;904;47.814;11.134;2023-07-31T14:16:39;4.50;;;1.47;;
1811;SDS011;904;47.814;11.134;2023-07-31T14:19:06;2.80;;;1.77;;
1811;SDS011;904;47.814;11.134;2023-07-31T14:21:33;4.03;;;1.80;;
1811;SDS011;904;47.814;11.134;2023-07-31T14:24:00;3.10;;;1.77;;
1811;SDS011;904;47.814;11.134;2023-07-31T14:26:29;3.33;;;1.80;;
1811;SDS011;904;47.814;11.134;2023-07-31T14:28:56;2.57;;;1.73;;
1811;SDS011;904;47.814;11.134;2023-07-31T14:31:23;2.93;;;1.50;;
1811;SDS011;904;47.814;11.134;2023-07-31T14:33:50;3.27;;;1.60;;
1811;SDS011;904;47.814;11.134;2023-07-31T14:36:18;2.73;;;1.43;;
1811;SDS011;904;47.814;11.134;2023-07-31T14:38:49;3.80;;;2.07;;
1811;SDS011;904;47.814;11.134;2023-07-31T14:41:16;3.03;;;1.43;;
1811;SDS011;904;47.814;11.134;2023-07-31T14:43:45;3.03;;;1.53;;
1811;SDS011;904;47.814;11.134;2023-07-31T14:46:12;4.03;;;1.80;;
1811;SDS011;904;47.814;11.134;2023-07-31T14:48:39;2.87;;;1.47;;
1811;SDS011;904;47.814;11.134;2023-07-31T14:51:07;4.27;;;2.77;;
1811;SDS011;904;47.814;11.134;2023-07-31T14:53:34;3.77;;;2.50;;
1811;SDS011;904;47.814;11.134;2023-07-31T14:56:01;4.33;;;1.60;;
1811;SDS011;904;47.814;11.134;2023-07-31T14:58:28;5.10;;;1.90;;
1811;SDS011;904;47.814;11.134;2023-07-31T15:00:56;2.60;;;1.40;;
1811;SDS011;904;47.814;11.134;2023-07-31T15:03:23;2.73;;;1.53;;
1811;SDS011;904;47.814;11.134;2023-07-31T15:05:53;4.00;;;1.50;;
1811;SDS011;904;47.814;11.134;2023-07-31T15:08:20;5.00;;;2.07;;
1811;SDS011;904;47.814;11.134;2023-07-31T15:10:47;3.33;;;1.70;;
1811;SDS011;904;47.814;11.134;2023-07-31T15:13:14;4.77;;;1.70;;
1811;SDS011;904;47.814;11.134;2023-07-31T15:15:41;3.50;;;1.83;;
1811;SDS011;904;47.814;11.134;2023-07-31T15:18:09;5.43;;;1.80;;
1811;SDS011;904;47.814;11.134;2023-07-31T15:20:36;2.77;;;1.50;;
1811;SDS011;904;47.814;11.134;2023-07-31T15:23:08;3.20;;;1.57;;